Date,TemperatureHighF,TemperatureAvgF,TemperatureLowF,DewpointHighF,DewpointAvgF,DewpointLowF,HumidityHigh,HumidityAvg,HumidityLow,PressureMaxIn,PressureMinIn,WindSpeedMaxMPH,WindSpeedAvgMPH,GustSpeedMaxMPH,PrecipitationSumIn
2013-1-1,29.3,22.8,16.4,28.0,18.2,12.9,95,83,70,30.33,30.16,13,1,13,0.00
2013-1-2,33.2,21.1,12.1,19.1,14.2,10.0,92,76,44,30.35,30.24,6,0,6,0.00
2013-1-3,39.2,29.6,18.3,28.4,23.6,15.7,94,79,61,30.45,30.27,16,2,16,0.01
2013-1-4,40.4,30.4,21.2,26.4,23.0,18.7,92,75,52,30.49,30.35,13,1,13,0.00
2013-1-5,45.7,37.3,25.7,33.2,27.5,20.8,83,68,53,30.36,30.13,12,1,12,0.05
2013-1-6,42.3,32.5,21.9,33.9,25.6,19.3,90,76,59,30.44,30.11,18,4,21,0.00
2013-1-7,45.8,33.5,21.1,30.0,25.5,18.4,93,73,51,30.45,30.19,10,1,11,0.00
2013-1-8,53.5,41.4,27.6,37.7,29.3,23.8,87,64,36,30.25,30.12,10,0,10,0.00
2013-1-9,55.8,48.3,41.3,44.4,37.9,32.8,89,68,45,30.50,30.20,13,1,13,0.01
2013-1-10,57.2,46.9,42.4,56.8,42.9,31.8,99,87,61,30.48,29.80,15,2,16,0.54
2013-1-11,63.7,55.8,49.6,56.8,50.0,47.4,99,82,60,29.90,29.78,18,1,18,0.00
2013-1-12,56.9,47.5,31.5,51.0,41.2,30.0,95,80,56,29.98,29.81,14,2,14,0.45
2013-1-13,31.6,24.9,17.0,30.3,21.4,14.2,95,87,79,30.43,29.94,15,2,16,0.00
2013-1-14,26.2,20.3,15.8,18.4,15.6,13.2,93,82,67,30.58,30.42,7,1,7,0.00
2013-1-15,29.6,23.5,15.0,23.3,18.9,12.6,94,83,69,30.49,30.20,8,0,9,0.00
2013-1-16,42.0,29.7,17.3,26.1,21.2,15.4,93,72,45,30.23,30.07,10,1,18,0.01
2013-1-17,40.3,33.4,23.3,30.4,25.8,20.3,89,74,51,30.53,30.17,15,2,15,0.00
2013-1-18,55.4,39.1,21.8,29.6,25.1,19.3,92,61,33,30.55,30.16,15,1,15,0.00
2013-1-19,64.3,51.4,41.3,37.4,33.2,28.6,63,51,35,30.17,29.93,21,4,21,0.00
2013-1-20,46.4,31.2,24.7,32.3,17.7,10.6,79,57,47,30.38,30.15,21,2,21,0.00
2013-1-21,24.7,19.9,15.1,14.9,4.9,-3.0,75,53,35,30.46,30.35,22,5,22,0.00
2013-1-22,17.9,15.1,12.8,11.9,7.1,1.0,89,71,54,30.56,30.44,7,1,7,0.00
2013-1-23,40.7,26.7,12.7,26.1,18.2,10.3,92,72,54,30.45,30.20,11,1,12,0.01
2013-1-24,28.2,22.1,15.5,18.4,9.7,3.4,74,59,50,30.67,30.31,16,2,21,0.00
2013-1-25,43.2,33.8,27.0,23.8,18.6,11.1,60,53,45,30.33,30.16,15,2,15,0.00
2013-1-26,38.9,31.5,23.2,23.7,17.9,13.0,75,58,39,30.45,30.28,10,1,10,0.00
2013-1-27,51.5,37.9,30.0,50.1,34.1,20.2,97,87,65,30.35,29.99,17,2,17,0.17
2013-1-28,74.0,62.6,51.0,62.8,58.3,49.3,97,86,66,30.00,29.84,13,1,13,0.00
2013-1-29,67.3,61.7,52.8,61.7,58.5,52.3,98,90,78,29.84,29.42,22,2,22,1.28
2013-1-30,52.9,39.5,26.9,52.4,34.8,17.6,98,83,65,29.95,29.36,30,7,30,0.17
2013-1-31,31.9,24.7,12.0,24.2,15.2,0.3,84,67,52,30.45,29.95,24,7,27,0.00
2013-2-1,29.8,23.4,10.3,13.7,8.0,0.5,68,52,43,30.49,30.28,20,2,20,0.00
2013-2-2,42.3,33.9,29.0,29.6,22.0,12.4,94,62,48,30.28,30.09,20,3,20,0.00
2013-2-3,33.3,30.3,26.1,29.9,23.2,17.9,96,76,56,30.24,30.04,21,3,21,0.06
2013-2-4,54.6,38.4,28.6,36.5,28.7,20.8,85,69,47,30.04,29.83,17,2,17,0.04
2013-2-5,54.8,39.1,29.5,36.9,30.9,25.6,89,74,49,30.18,29.93,19,2,19,0.00
2013-2-6,52.1,39.6,26.1,34.6,30.7,24.6,96,73,46,30.28,30.09,13,1,14,0.00
2013-2-7,49.7,42.8,38.1,44.9,38.1,32.3,97,83,71,30.09,29.89,17,2,17,0.18
2013-2-8,38.0,34.9,30.4,36.2,30.9,26.3,95,85,79,30.42,30.09,16,3,18,0.00
2013-2-9,42.3,35.9,30.2,36.1,29.5,26.3,90,78,65,30.42,30.06,14,2,16,0.09
2013-2-10,56.4,47.9,38.6,52.7,42.1,31.9,96,83,42,30.06,29.61,26,3,27,0.45
2013-2-11,50.4,41.9,30.1,31.8,28.2,25.5,84,59,41,30.18,29.80,31,6,31,0.00
2013-2-12,44.4,35.5,24.5,32.1,28.5,23.0,96,77,55,30.21,29.99,6,0,7,0.00
2013-2-13,37.4,37.0,36.5,32.3,31.5,30.4,84,81,76,29.99,29.93,4,0,4,0.00
2013-2-14,49.9,45.1,41.8,34.4,32.8,29.3,67,62,54,30.09,30.00,10,2,11,0.00
2013-2-15,41.8,34.7,28.2,31.1,20.5,14.2,81,57,38,30.31,30.09,18,4,18,0.00
2013-2-16,35.9,27.2,21.4,18.0,14.9,11.4,84,61,37,30.33,30.22,15,3,15,0.00
2013-2-17,48.0,35.0,20.0,33.2,23.0,16.3,89,64,39,30.24,29.95,15,2,15,0.00
2013-2-18,57.9,46.2,33.5,48.7,39.5,24.8,93,78,66,29.94,29.56,27,4,27,0.22
2013-2-19,33.4,28.3,24.4,25.2,17.3,13.0,75,63,51,30.36,29.94,27,7,27,0.00
2013-2-20,25.7,22.3,17.7,15.5,13.0,10.1,78,67,60,30.48,30.34,10,1,11,0.00
2013-2-21,32.0,26.1,19.7,31.0,22.8,14.7,96,87,76,30.40,29.88,19,3,26,0.00
2013-2-22,36.1,31.7,23.8,34.2,28.0,19.4,97,87,69,30.12,29.84,18,2,18,0.14
2013-2-23,35.6,25.1,15.8,22.9,19.3,13.5,93,79,59,30.11,30.04,10,1,10,0.23
2013-2-24,45.6,31.7,15.9,28.8,23.3,14.2,96,73,46,30.18,30.08,11,1,11,0.08
2013-2-25,45.2,38.1,30.3,33.8,30.5,26.4,91,75,58,30.11,29.66,17,3,22,0.12
2013-2-26,39.4,35.8,33.5,38.6,34.6,32.1,97,95,91,29.70,29.39,17,4,18,0.76
2013-2-27,33.5,33.3,32.0,32.5,31.5,29.1,96,93,89,29.93,29.71,14,5,16,0.05
2013-2-28,34.4,32.8,31.6,30.9,29.8,28.8,95,89,83,30.15,29.93,14,4,15,0.00
2013-3-1,34.4,31.0,28.6,30.4,28.3,24.6,96,90,78,30.25,30.12,12,3,12,0.09
2013-3-2,34.2,29.0,20.7,24.8,21.5,17.9,89,74,56,30.30,30.24,15,3,15,0.01
2013-3-3,40.9,30.0,15.5,26.6,20.1,13.5,95,69,42,30.27,30.08,8,0,8,0.00
2013-3-4,51.7,42.7,34.4,39.3,32.5,26.7,85,68,52,30.08,29.79,19,3,19,0.02
2013-3-5,42.5,34.7,31.9,34.8,30.2,24.2,97,84,69,30.17,29.82,29,6,29,0.20
2013-3-6,38.1,32.5,26.3,27.2,24.9,23.0,88,74,63,30.41,30.17,28,4,28,0.03
2013-3-7,45.9,34.1,21.7,31.4,26.9,19.7,94,76,51,30.48,30.35,12,1,12,0.00
2013-3-8,53.4,42.2,30.2,36.0,31.8,27.3,90,68,44,30.47,30.23,15,2,15,0.00
2013-3-9,66.8,52.5,40.8,44.0,38.0,31.2,92,60,40,30.23,29.81,19,3,19,0.38
2013-3-10,60.2,52.9,46.4,53.3,49.3,40.9,97,88,49,29.81,29.65,29,1,29,1.14
2013-3-11,46.4,36.3,33.5,43.5,32.1,27.4,93,85,73,30.03,29.73,24,6,24,0.03
2013-3-12,48.6,37.5,29.5,30.1,26.6,22.6,85,66,45,30.25,30.01,26,6,27,0.00
2013-3-13,40.9,33.3,27.3,27.3,20.9,18.1,86,61,42,30.47,30.25,20,4,21,0.00
2013-3-14,52.8,39.2,25.3,35.1,29.6,20.9,87,70,44,30.44,30.13,9,1,9,0.01
2013-3-15,71.0,51.4,30.3,49.0,39.9,28.3,95,69,37,30.13,29.67,11,0,11,0.00
2013-3-16,63.4,47.2,38.8,47.7,40.3,36.3,93,78,52,30.09,29.65,14,2,16,0.06
2013-3-17,38.8,35.8,33.1,36.9,32.7,28.1,96,88,78,30.14,29.82,17,2,17,1.00
2013-3-18,50.2,40.9,36.2,38.8,34.7,23.8,98,81,48,30.06,29.73,22,4,22,0.07
2013-3-19,45.4,36.9,28.7,25.8,20.8,16.1,78,54,32,30.26,30.06,19,3,20,0.00
2013-3-20,36.0,31.3,26.0,30.8,19.1,12.3,86,61,42,30.33,30.16,23,4,24,0.00
2013-3-21,36.6,29.1,21.5,20.2,15.8,12.8,72,58,42,30.18,30.04,10,2,10,0.00
2013-3-22,43.1,36.5,31.2,27.2,24.3,19.7,71,62,49,30.10,30.02,9,1,9,0.00
2013-3-23,53.4,44.4,37.2,35.7,28.4,23.3,76,54,40,30.09,29.86,14,2,14,0.01
2013-3-24,42.5,33.2,31.2,35.6,31.7,30.4,98,94,75,29.90,29.60,16,2,16,0.02
2013-3-25,36.0,32.0,28.9,32.2,29.2,25.8,98,90,76,30.24,29.86,18,2,18,0.11
2013-3-26,39.6,33.2,26.1,27.2,25.3,23.1,89,74,57,30.40,30.23,11,2,12,0.25
2013-3-27,44.7,34.0,20.3,29.1,25.0,18.8,96,72,52,30.45,30.34,7,1,8,0.00
2013-3-28,56.0,45.6,36.1,39.9,33.0,26.1,72,62,51,30.40,30.26,12,2,13,0.00
2013-3-29,61.3,52.2,43.2,47.2,42.9,38.7,88,72,54,30.27,30.19,11,1,12,0.00
2013-3-30,55.9,48.0,41.4,48.3,44.1,40.3,97,87,64,30.23,29.94,14,1,15,0.11
2013-3-31,67.0,54.9,46.9,51.4,44.5,34.3,97,72,35,29.97,29.86,22,3,22,0.00
2013-4-1,50.3,42.6,35.9,34.9,25.5,9.4,73,52,21,30.27,29.96,17,3,17,0.00
2013-4-2,48.6,38.3,26.9,26.5,21.2,14.5,84,52,28,30.40,30.27,10,1,11,0.00
2013-4-3,52.4,42.9,31.5,26.7,24.3,20.6,78,49,34,30.44,30.29,13,2,14,0.00
2013-4-4,60.2,46.9,30.9,31.1,26.1,20.6,82,48,25,30.28,30.06,11,1,11,0.00
2013-4-5,66.5,51.3,34.4,39.2,33.9,29.9,85,56,27,30.22,30.05,9,1,10,0.00
2013-4-6,75.3,64.0,52.4,45.2,39.8,34.1,61,42,26,30.05,29.70,19,2,19,0.00
2013-4-7,78.2,67.1,50.9,59.5,50.1,44.4,83,57,31,29.92,29.76,15,1,15,0.00
2013-4-8,79.5,70.2,61.8,62.5,58.2,54.7,82,67,48,29.86,29.71,17,1,17,0.00
2013-4-9,79.6,71.3,64.9,64.3,61.0,57.8,79,70,58,29.87,29.79,19,2,19,0.00
2013-4-10,80.0,68.3,58.9,70.0,63.2,57.5,97,84,63,29.84,29.55,26,2,34,1.05
2013-4-12,44.7,42.2,37.5,34.8,32.8,30.6,78,69,63,30.05,29.77,19,4,19,0.00
2013-4-13,61.2,48.3,33.2,42.8,36.3,31.3,93,65,43,30.11,29.92,18,2,18,0.00
2013-4-14,79.3,64.2,48.8,56.9,48.5,42.3,79,59,32,29.92,29.60,22,3,22,0.00
2013-4-15,68.8,61.4,52.8,62.6,56.6,49.9,96,84,67,29.91,29.72,10,1,15,0.48
2013-4-16,53.2,47.1,44.5,50.8,45.5,43.1,97,94,88,30.18,29.85,23,2,28,1.11
2013-4-17,85.4,65.7,49.8,70.0,58.7,46.7,98,80,53,30.15,29.66,15,2,17,0.00
2013-4-18,75.7,60.2,41.9,67.6,55.8,34.6,98,86,72,29.78,29.54,26,4,29,2.39
2013-4-19,51.4,43.5,38.3,35.2,29.8,26.3,77,59,40,30.09,29.77,24,7,25,0.00
2013-4-20,56.1,44.7,30.3,35.2,30.4,23.5,96,60,35,30.37,30.09,15,2,15,0.00
2013-4-21,64.1,52.9,42.6,43.6,37.9,33.3,71,58,41,30.44,30.26,15,2,18,0.00
2013-4-22,72.0,60.2,43.8,48.0,41.8,37.3,79,53,33,30.29,29.98,17,1,17,0.00
2013-4-23,62.1,52.5,39.9,57.2,47.7,38.6,96,85,60,30.06,29.89,13,2,15,0.73
2013-4-24,43.9,40.0,37.6,38.7,36.4,33.3,95,87,69,30.28,30.02,9,2,14,0.04
2013-4-25,62.6,46.6,36.3,38.6,34.8,31.1,91,65,36,30.39,30.26,13,1,15,0.00
2013-4-26,61.2,54.7,48.8,49.1,44.1,36.4,81,68,53,30.40,30.27,13,1,13,0.00
2013-4-27,53.6,51.7,49.2,52.8,50.1,45.7,98,95,80,30.30,29.95,10,1,13,0.43
2013-4-28,57.7,54.3,50.2,52.9,51.6,48.3,99,91,80,29.99,29.92,16,2,18,0.02
2013-4-29,80.0,64.4,48.4,62.8,56.2,47.2,98,77,53,29.96,29.77,14,1,15,0.00
2013-4-30,88.3,75.0,61.8,62.8,59.2,51.6,88,61,29,29.92,29.79,14,2,15,0.00
2013-5-1,83.9,73.5,59.9,62.2,57.8,50.3,88,61,36,30.06,29.93,15,1,15,0.00
2013-5-2,68.9,59.0,44.7,61.1,53.7,43.3,97,84,61,30.17,30.05,19,3,19,0.33
2013-5-3,44.7,42.3,40.7,43.4,41.4,39.6,97,96,94,30.12,29.85,13,3,16,1.88
2013-5-4,49.9,44.9,40.5,45.1,42.3,39.7,97,91,81,30.04,29.86,7,0,7,0.00
2013-5-5,61.1,53.6,45.8,58.3,52.0,44.6,99,95,85,30.03,29.91,9,1,9,0.13
2013-5-6,69.3,60.8,53.5,58.2,54.9,52.1,97,82,60,30.00,29.93,11,1,11,0.01
2013-5-7,79.0,66.6,57.2,60.4,56.9,53.2,96,74,43,30.04,29.98,8,1,9,0.00
2013-5-8,82.5,67.3,51.3,61.2,54.9,47.1,98,70,32,30.05,29.96,11,1,11,0.00
2013-5-9,76.0,68.3,62.0,66.0,61.6,59.1,93,80,61,29.98,29.83,18,1,18,0.11
2013-5-10,64.8,61.0,55.0,61.5,57.5,50.9,95,88,80,30.02,29.83,12,2,12,0.00
2013-5-11,68.3,59.0,51.7,55.6,45.3,32.1,95,64,33,30.18,30.00,21,3,24,0.00
2013-5-12,62.3,52.3,38.7,38.5,33.1,27.6,87,50,31,30.25,30.16,12,2,16,0.00
2013-5-13,75.4,58.3,37.1,46.3,39.5,28.8,97,56,25,30.25,30.03,9,1,10,0.00
2013-5-14,92.6,76.5,57.1,59.3,53.2,46.3,78,48,26,30.03,29.78,16,2,17,0.00
2013-5-15,78.4,76.0,74.4,53.1,52.3,51.3,47,44,39,29.87,29.85,13,2,13,0.00
2013-5-16,82.2,73.0,64.1,61.4,59.9,58.3,85,65,48,29.93,29.85,11,1,11,0.00
2013-5-17,77.1,69.8,63.4,69.7,64.1,59.1,94,82,68,29.96,29.90,9,0,11,0.21
2013-5-18,83.2,72.8,63.1,69.2,65.5,62.1,98,79,57,30.01,29.86,11,1,11,0.00
2013-5-19,91.0,80.2,70.2,76.2,69.7,64.3,88,72,51,29.90,29.68,18,2,18,0.00
2013-5-20,82.2,72.8,62.9,71.9,66.7,59.5,97,82,61,29.88,29.67,31,2,31,2.42
2013-5-21,82.1,71.0,63.4,68.9,64.1,61.8,98,80,57,29.81,29.69,10,1,11,0.20
2013-5-22,75.8,68.7,63.0,63.2,59.3,55.4,93,74,53,29.87,29.66,18,2,18,0.00
2013-5-23,64.6,61.7,55.5,60.1,55.7,51.6,94,81,72,30.24,29.87,17,3,17,0.03
2013-5-24,70.0,58.0,44.9,51.7,44.4,37.8,97,64,33,30.43,30.24,11,1,12,0.01
2013-5-25,69.2,60.3,49.2,58.8,52.1,45.2,92,75,54,30.37,30.15,14,1,14,0.12
2013-5-26,83.0,70.4,56.6,73.6,60.2,50.1,90,71,58,30.20,29.99,13,1,13,0.12
2013-5-27,84.2,71.6,66.1,71.9,66.0,63.0,96,83,65,30.03,29.74,18,1,20,0.53
2013-5-28,86.4,75.1,67.4,73.1,67.9,64.5,97,80,58,29.89,29.76,20,1,20,0.14
2013-5-29,88.5,79.1,67.1,70.0,66.0,62.3,88,65,47,29.94,29.80,17,2,17,0.00
2013-5-30,83.6,76.7,65.8,73.6,68.7,63.5,95,77,63,29.89,29.77,18,2,18,0.56
2013-5-31,82.2,70.7,64.2,73.9,67.2,62.8,98,89,74,29.88,29.71,18,1,21,1.41
2013-6-1,78.6,69.3,64.8,69.3,64.2,57.9,98,85,61,29.89,29.68,18,2,19,0.27
2013-6-2,67.6,63.8,60.0,60.7,57.8,54.4,88,81,74,30.03,29.88,18,2,18,0.00
2013-6-3,70.8,63.0,57.1,54.9,52.8,47.0,88,70,53,30.11,30.00,9,1,9,0.00
2013-6-4,73.5,64.7,52.2,59.8,55.9,50.8,96,75,52,30.10,30.00,9,1,10,0.00
2013-6-5,81.5,69.5,57.7,66.2,61.5,56.3,98,78,50,30.02,29.85,7,0,8,0.07
2013-6-6,78.5,69.9,61.1,66.5,61.1,54.6,98,76,52,29.88,29.82,14,2,15,0.00
2013-6-7,68.5,62.5,59.1,59.9,57.5,56.3,93,84,72,29.92,29.87,4,0,4,0.00
2013-6-8,82.5,70.1,55.6,62.2,57.8,54.0,98,68,42,29.98,29.90,11,1,11,0.00
2013-6-9,80.5,69.0,62.9,66.0,62.3,59.3,96,80,57,29.94,29.79,20,1,20,0.29
2013-6-10,79.7,70.3,63.4,67.4,63.8,62.1,97,81,59,29.91,29.77,13,2,15,0.02
2013-6-11,91.4,78.2,60.1,74.8,68.6,59.2,98,75,53,29.96,29.84,9,1,14,0.00
2013-6-12,94.8,85.7,72.3,78.2,72.8,68.7,90,67,51,29.93,29.70,17,2,20,0.00
2013-6-13,86.1,77.8,65.6,72.7,63.9,58.1,86,64,43,29.99,29.73,18,2,18,0.00
2013-6-14,82.8,72.8,60.7,64.8,60.9,58.5,96,68,47,30.09,29.93,11,1,11,0.00
2013-6-15,90.0,76.4,67.4,75.1,67.4,61.8,97,75,52,30.09,29.91,19,1,19,0.91
2013-6-16,84.5,77.6,67.8,75.1,72.0,66.9,98,84,69,30.02,29.91,12,0,12,0.16
2013-6-17,85.9,73.2,65.6,76.9,69.7,64.8,99,90,67,29.94,29.85,12,0,12,0.22
2013-6-18,88.5,74.6,62.7,71.8,65.3,60.8,99,76,43,29.96,29.91,12,1,12,0.01
2013-6-19,85.9,74.6,63.4,69.6,64.9,61.8,97,74,46,30.06,29.96,10,0,10,0.00
2013-6-20,91.5,80.0,65.6,72.0,68.2,64.4,97,70,48,30.11,30.02,10,0,10,0.00
2013-6-21,92.6,84.0,72.4,76.3,72.3,69.0,90,69,56,30.08,29.97,12,1,12,0.00
2013-6-22,88.7,77.8,70.5,76.5,70.1,64.7,89,78,64,30.06,29.99,9,1,18,0.01
2013-6-23,90.2,74.5,68.5,76.8,69.1,64.6,97,84,60,30.05,29.94,21,1,21,1.35
2013-6-24,92.8,80.8,67.4,76.9,71.4,66.3,98,76,51,30.07,29.91,10,1,11,0.01
2013-6-25,93.3,85.0,76.9,77.6,73.8,71.0,83,70,55,29.95,29.76,17,1,17,0.00
2013-6-26,92.0,80.6,73.8,79.4,74.2,70.6,96,82,64,29.85,29.70,27,1,27,0.45
2013-6-27,91.5,81.7,73.3,76.1,72.6,69.9,97,76,50,29.88,29.75,14,2,16,0.00
2013-6-28,87.7,80.4,73.7,72.8,66.9,58.5,93,66,39,29.84,29.69,17,3,18,0.00
2013-6-29,80.2,71.3,63.0,68.0,63.7,58.6,96,78,59,29.74,29.64,22,2,28,0.42
2013-6-30,76.0,69.1,64.9,66.2,63.8,61.2,95,84,67,29.92,29.73,15,2,15,0.00
2013-7-1,79.7,71.6,64.3,63.9,57.2,53.8,87,62,45,29.98,29.91,17,2,17,0.00
2013-7-2,70.3,64.2,61.4,62.5,60.0,54.8,98,87,59,30.05,29.94,10,1,10,0.46
2013-7-3,82.7,70.9,62.0,65.4,62.4,58.4,99,77,49,30.10,30.01,7,0,8,0.00
2013-7-4,85.2,74.7,61.1,66.2,62.2,59.5,96,67,46,30.10,30.00,8,0,8,0.00
2013-7-5,85.0,76.2,65.5,71.0,66.6,61.6,97,74,49,30.07,29.99,12,1,12,0.00
2013-7-6,87.9,76.0,65.9,71.9,67.7,60.5,97,78,49,30.04,29.95,10,0,14,0.44
2013-7-7,92.4,80.2,66.3,75.1,69.5,64.8,97,72,48,30.04,29.98,8,1,9,0.00
2013-7-8,93.3,83.3,74.0,77.1,72.2,68.7,84,70,53,30.08,29.99,8,0,10,0.00
2013-7-9,94.0,86.2,79.2,78.2,74.6,71.2,79,69,56,30.03,29.90,12,1,12,0.00
2013-7-10,87.6,82.2,75.3,78.5,73.6,68.7,86,76,64,29.98,29.88,10,0,10,0.92
2013-7-11,83.7,75.3,66.6,68.9,63.7,60.1,94,69,48,30.06,29.98,15,1,15,0.00
2013-7-12,85.1,74.1,63.3,63.8,60.6,54.4,94,66,37,30.12,30.03,8,1,9,0.00
2013-7-13,85.1,74.5,61.4,66.4,62.5,59.3,95,69,46,30.10,30.02,6,1,13,0.00
2013-7-14,88.8,77.8,66.8,73.3,68.4,63.7,95,74,54,30.15,30.04,12,1,12,0.05
2013-7-15,90.2,81.1,72.7,77.7,74.3,71.5,98,81,61,30.22,30.13,10,1,13,0.03
2013-7-16,92.0,83.2,74.3,76.0,73.4,70.9,95,74,53,30.29,30.20,9,0,9,0.01
2013-7-17,94.3,83.3,72.7,78.8,74.6,70.9,97,77,48,30.32,30.18,5,0,7,0.00
2013-7-18,92.8,84.3,73.8,78.4,74.8,70.9,98,75,56,30.21,30.01,10,0,12,0.00
2013-7-19,96.8,85.7,75.2,76.8,73.5,69.3,91,69,42,30.01,29.85,11,1,11,0.00
2013-7-20,91.5,82.1,74.3,78.3,72.5,68.7,85,73,56,29.91,29.80,11,1,13,0.00
2013-7-21,83.4,77.5,73.1,75.4,71.8,69.3,91,83,70,29.92,29.83,7,0,7,0.00
2013-7-22,91.0,79.5,69.3,76.9,72.9,68.4,98,82,57,29.86,29.76,9,0,9,0.02
2013-7-23,89.9,81.2,72.9,76.3,71.8,64.8,93,74,55,29.90,29.71,11,1,13,0.00
2013-7-24,79.3,72.2,64.0,65.2,58.9,53.3,86,65,45,30.03,29.90,13,1,13,0.00
2013-7-25,80.7,70.6,58.5,64.3,59.9,56.6,98,71,49,30.13,30.03,11,0,11,0.00
2013-7-26,75.8,71.6,66.8,70.9,65.0,58.7,92,80,68,30.07,29.94,9,1,9,0.03
2013-7-27,75.0,67.6,57.0,67.7,58.2,52.3,97,74,48,30.01,29.95,16,2,17,0.00
2013-7-28,80.4,66.7,51.7,60.1,54.6,50.6,98,69,37,30.06,30.00,12,1,12,0.00
2013-7-29,80.3,69.6,56.2,65.8,60.8,55.3,98,76,51,30.16,30.06,7,0,7,0.00
2013-7-30,77.2,71.4,65.5,72.1,68.0,62.3,97,89,71,30.12,30.00,9,1,11,1.40
2013-7-31,80.2,73.1,66.0,73.6,70.0,64.7,99,91,73,30.05,29.99,12,1,13,0.00
2013-8-1,87.4,74.3,64.6,71.0,64.9,58.2,99,76,39,30.08,29.98,11,1,11,0.01
2013-8-2,82.4,74.4,68.3,74.2,69.1,62.4,98,84,67,29.99,29.91,9,0,9,0.64
2013-8-3,84.1,77.5,66.9,73.5,69.2,63.6,98,77,62,30.11,29.93,10,1,10,0.00
2013-8-4,80.3,72.7,61.8,65.8,61.5,57.2,97,70,48,30.18,30.08,7,0,7,0.00
2013-8-5,75.3,71.9,68.7,69.2,65.5,61.0,94,80,70,30.09,29.87,10,1,10,0.00
2013-8-6,90.1,79.0,70.9,74.5,71.9,69.1,97,81,56,29.93,29.83,9,1,9,0.00
2013-8-7,88.5,80.0,74.1,75.8,72.5,67.7,95,79,55,29.91,29.80,12,1,12,0.00
2013-8-8,79.5,75.1,71.0,75.2,72.4,69.6,97,92,84,29.96,29.88,8,0,8,0.10
2013-8-9,81.3,74.1,67.1,72.9,69.4,66.5,99,86,67,30.07,29.94,7,0,7,0.00
2013-8-10,84.2,74.8,65.8,70.1,66.3,59.8,98,77,48,30.15,30.06,10,1,11,0.00
2013-8-11,86.8,73.7,59.2,66.7,61.7,58.3,99,70,42,30.15,30.04,7,0,8,0.00
2013-8-12,79.7,74.0,69.0,75.5,69.2,63.6,97,85,75,30.07,29.90,7,0,7,0.15
2013-8-13,78.3,70.8,64.0,68.5,64.8,53.8,98,82,66,30.13,29.95,10,1,11,0.01
2013-8-14,74.5,65.1,53.0,57.5,54.5,51.6,98,71,48,30.22,30.13,10,1,10,0.00
2013-8-15,64.3,59.5,56.6,58.2,56.4,55.1,95,90,79,30.17,30.11,0,0,0,0.00
2013-8-16,77.3,66.4,56.4,60.8,58.0,55.3,98,77,51,30.16,30.10,10,0,10,0.00
2013-8-17,80.2,69.3,57.1,64.8,60.9,56.3,98,77,54,30.19,30.10,8,1,8,0.00
2013-8-18,82.7,71.6,63.1,67.8,64.0,60.6,95,79,54,30.18,30.07,10,0,11,0.00
2013-8-19,86.0,74.5,62.3,71.5,65.3,61.3,99,76,49,30.13,30.02,6,0,6,0.00
2013-8-20,88.1,76.4,64.4,71.2,67.5,63.3,98,76,52,30.11,30.02,6,0,7,0.00
2013-8-21,91.3,78.2,66.3,71.6,68.2,65.2,98,74,44,30.12,30.01,10,1,11,0.00
2013-8-22,89.7,79.7,69.3,76.5,72.2,67.4,95,79,59,30.09,30.00,9,1,9,0.00
2013-8-23,89.1,80.4,73.0,74.9,71.5,69.0,95,76,53,30.09,30.03,9,1,11,0.00
2013-8-24,90.9,79.2,67.6,73.0,68.9,66.2,97,73,48,30.19,30.09,9,1,9,0.00
2013-8-25,92.6,80.2,65.7,73.7,67.2,61.3,96,68,36,30.26,30.15,7,0,8,0.00
2013-8-26,95.3,83.9,74.6,77.7,73.4,65.3,95,73,39,30.19,30.04,9,1,10,0.00
2013-8-27,94.3,84.0,74.3,76.1,71.5,67.8,90,68,44,30.07,29.96,10,1,14,0.00
2013-8-28,95.8,82.3,69.3,73.2,70.0,67.5,96,69,42,30.03,29.95,13,1,13,0.00
2013-8-29,96.0,82.8,70.0,77.1,72.5,68.5,95,74,45,30.03,29.93,10,1,10,0.00
2013-8-30,99.3,85.9,73.7,78.0,74.4,71.0,97,71,42,29.95,29.80,9,1,9,0.00
2013-8-31,99.8,87.1,77.1,78.6,73.6,67.3,88,67,37,29.83,29.68,12,1,12,0.06
2013-9-1,90.1,81.2,73.7,79.3,75.2,68.4,98,83,53,29.83,29.75,8,0,8,0.01
2013-9-2,83.4,74.9,66.0,73.4,64.6,61.2,95,71,53,29.96,29.83,13,1,13,0.00
2013-9-3,82.9,69.8,56.7,65.5,60.2,55.4,97,74,44,30.09,29.96,9,0,9,0.00
2013-9-4,86.3,71.9,58.5,65.5,61.1,57.1,98,72,40,30.17,30.07,7,0,7,0.00
2013-9-5,88.3,74.1,60.1,67.6,62.5,57.3,98,71,36,30.19,30.12,8,0,8,0.00
2013-9-6,89.8,76.7,64.3,68.5,64.4,60.0,97,69,37,30.18,30.02,9,0,9,0.00
2013-9-7,93.7,78.0,63.0,71.9,66.3,61.8,97,71,37,30.04,29.90,10,1,11,0.01
2013-9-8,85.0,77.6,71.9,77.2,71.6,66.9,98,82,68,30.01,29.89,12,0,12,0.33
2013-9-9,97.5,83.8,72.8,77.1,72.5,68.6,96,72,42,29.96,29.88,9,1,9,0.00
2013-9-10,96.8,83.3,72.5,73.7,69.2,62.3,92,66,33,30.07,29.95,11,1,11,0.00
2013-9-11,95.3,81.7,67.5,74.2,68.9,65.4,96,68,40,30.12,30.01,7,0,9,0.00
2013-9-12,85.7,76.9,65.9,70.8,65.1,52.8,90,68,50,30.08,29.97,10,1,11,0.00
2013-9-13,74.6,65.2,55.1,60.7,52.9,46.7,86,66,42,30.15,30.06,14,1,14,0.00
2013-9-14,77.1,63.3,50.7,51.3,46.6,36.5,89,58,25,30.18,30.04,7,0,8,0.00
2013-9-15,81.8,69.3,57.5,65.8,56.3,48.3,94,65,45,30.11,29.98,9,0,9,0.04
2013-9-16,73.0,64.7,58.6,65.2,58.3,54.8,94,81,58,30.28,30.11,10,1,11,0.01
2013-9-17,72.8,64.4,58.6,65.4,59.7,54.4,95,85,73,30.25,30.08,8,1,9,0.03
2013-9-18,89.0,74.7,65.1,73.3,68.4,62.4,97,82,58,30.09,29.94,10,0,10,0.14
2013-9-19,91.5,81.4,73.8,74.4,71.6,69.4,89,73,51,29.98,29.83,12,1,12,0.00
2013-9-20,79.9,68.4,58.3,71.3,66.0,55.3,98,92,74,29.92,29.86,12,1,12,0.56
2013-9-21,71.8,60.0,51.8,56.0,53.0,50.6,98,80,51,29.99,29.91,13,1,13,0.01
2013-9-22,75.2,60.4,48.4,59.6,52.9,47.6,99,80,46,30.04,29.94,7,0,8,0.00
2013-9-23,75.9,64.1,51.1,56.5,53.2,49.8,97,70,44,30.05,29.92,9,1,14,0.00
2013-9-24,81.3,68.2,56.8,66.1,60.0,52.4,92,76,55,29.96,29.78,12,1,12,0.00
2013-9-25,81.9,71.4,64.7,69.2,65.3,62.8,96,82,56,29.87,29.78,7,0,8,0.00
2013-9-26,83.7,72.1,61.8,68.6,62.8,59.9,97,75,48,30.01,29.86,11,1,11,0.00
2013-9-27,83.2,72.0,60.9,66.9,60.2,55.4,93,68,44,30.10,29.99,11,1,11,0.00
2013-9-28,85.0,74.4,65.4,68.7,62.8,55.8,90,68,52,30.04,29.93,12,1,12,0.00
2013-9-29,75.0,64.0,52.5,67.0,55.4,49.3,95,76,42,30.08,29.97,12,1,13,0.02
2013-9-30,79.0,64.3,48.5,65.3,57.9,47.7,98,81,56,30.00,29.89,11,0,11,0.00
2013-10-1,81.5,71.4,64.5,71.7,67.3,63.3,96,88,70,30.02,29.93,9,1,9,0.00
2013-10-2,83.4,73.6,66.3,73.3,69.2,65.3,99,87,67,30.05,29.94,10,0,10,0.05
2013-10-3,86.7,77.1,69.2,73.4,69.5,66.0,94,78,58,29.96,29.85,11,1,12,0.00
2013-10-4,87.5,78.0,70.0,72.4,70.0,68.2,95,78,56,29.96,29.88,13,1,13,0.00
2013-10-5,77.9,70.0,55.5,71.7,66.2,52.3,96,88,69,29.94,29.83,14,1,14,0.16
2013-10-6,57.9,53.3,47.5,52.8,46.0,40.8,97,78,56,29.93,29.85,21,3,21,0.00
2013-10-7,70.6,56.9,49.7,53.8,48.9,46.9,94,77,44,30.15,29.92,15,2,15,0.00
2013-10-8,74.9,59.6,45.8,60.3,49.9,45.0,99,74,42,30.22,30.13,10,0,13,0.00
2013-10-9,74.9,60.1,46.6,56.8,51.4,45.3,97,76,48,30.20,30.09,7,0,7,0.00
2013-10-10,79.3,65.3,53.5,64.4,58.1,52.6,98,80,51,30.17,30.00,8,0,8,0.00
2013-10-11,80.7,67.7,57.0,63.8,58.6,54.7,97,75,42,30.05,29.89,14,1,15,0.00
2013-10-12,76.3,66.1,52.0,65.0,57.8,46.8,91,76,46,30.21,29.93,11,1,11,0.00
2013-10-13,73.3,58.0,43.4,49.3,42.8,37.0,97,62,28,30.40,30.21,8,0,8,0.00
2013-10-14,67.0,57.5,47.5,55.1,45.3,38.3,77,64,49,30.36,30.06,11,1,13,0.00
2013-10-15,68.3,62.9,55.7,65.4,59.3,49.6,97,88,76,30.07,29.89,12,1,12,0.54
2013-10-16,58.2,50.9,43.5,49.8,44.3,41.9,97,79,61,30.07,29.97,14,2,15,0.00
2013-10-17,65.0,52.5,44.8,50.1,45.4,40.1,97,80,41,30.03,29.93,16,1,17,0.01
2013-10-18,60.2,51.7,44.7,47.1,43.0,38.5,92,73,46,30.09,29.97,13,2,16,0.04
2013-10-19,57.7,47.1,40.8,42.9,40.1,36.6,96,79,46,30.06,29.97,19,2,19,0.24
2013-10-20,72.6,57.4,44.8,46.8,42.8,39.1,81,61,34,29.99,29.86,14,1,16,0.00
2013-10-21,56.7,49.2,35.6,46.6,40.8,33.6,94,74,47,30.09,29.93,13,1,13,0.00
2013-10-22,61.2,45.1,34.2,48.4,39.9,33.1,97,83,57,30.09,29.81,17,2,21,0.23
2013-10-23,49.5,42.3,36.2,38.1,35.2,29.9,93,78,50,30.17,30.03,16,2,16,0.04
2013-10-24,47.2,40.6,28.2,38.4,31.8,25.9,95,73,49,30.45,30.16,19,2,20,0.01
2013-10-25,55.9,40.3,26.8,34.6,29.6,25.6,97,69,36,30.56,30.25,11,0,11,0.00
2013-10-26,63.7,50.0,37.8,45.0,35.9,29.4,79,59,42,30.25,30.03,18,2,18,0.00
2013-10-27,61.4,43.5,29.5,37.6,32.5,28.2,97,70,31,30.17,30.05,7,0,9,0.00
2013-10-28,67.8,50.3,33.7,48.2,41.3,32.4,97,74,42,30.27,30.08,7,0,7,0.00
2013-10-29,57.6,53.3,48.5,56.8,48.4,39.1,98,84,65,30.27,30.08,10,0,12,0.20
2013-10-30,71.8,64.5,57.4,68.4,62.3,56.8,99,93,80,30.08,29.83,12,1,12,0.03
2013-10-31,66.9,60.9,47.9,65.1,59.4,46.2,98,95,88,29.83,29.39,21,2,21,0.77
2013-11-1,61.1,52.4,47.5,48.0,45.5,41.7,96,79,53,29.88,29.64,21,2,21,0.01
2013-11-2,54.4,46.9,35.6,43.4,40.4,34.3,95,79,55,30.22,29.86,12,2,17,0.00
2013-11-3,57.9,45.7,31.5,43.5,35.7,30.7,98,72,44,30.34,30.18,12,1,12,0.00
2013-11-4,60.5,52.9,47.4,48.2,43.0,37.1,75,69,59,30.25,30.13,14,1,14,0.00
2013-11-5,60.8,56.5,52.3,54.7,51.6,47.1,97,84,73,30.28,30.00,15,1,16,0.22
2013-11-6,58.9,49.0,36.9,57.8,46.3,34.9,97,91,82,30.30,29.92,20,3,23,0.28
2013-11-7,55.5,40.9,30.4,40.6,34.8,29.4,98,81,49,30.43,30.30,14,1,16,0.01
2013-11-8,58.2,45.0,29.1,39.2,33.8,28.0,98,69,36,30.41,30.10,16,1,17,0.00
2013-11-9,67.5,54.1,42.7,44.2,39.8,37.1,88,60,35,30.26,30.07,22,2,22,0.00
2013-11-10,56.4,46.4,39.2,39.3,34.1,30.6,82,63,39,30.46,30.26,11,1,11,0.00
2013-11-11,64.5,47.9,32.6,50.1,39.4,30.3,93,74,54,30.54,30.14,15,2,15,0.10
2013-11-12,36.1,29.0,20.8,30.4,20.9,18.3,92,73,50,30.82,30.54,15,2,15,0.00
2013-11-13,47.9,33.2,19.0,22.7,18.3,15.3,94,59,28,30.76,30.35,8,0,10,0.00
2013-11-14,60.2,45.0,28.8,28.3,21.8,16.0,70,43,20,30.35,30.07,11,1,12,0.00
2013-11-15,58.7,50.5,46.1,44.0,34.8,26.5,86,56,41,30.09,29.95,10,1,11,0.00
2013-11-16,65.0,58.2,47.9,61.3,53.8,43.9,93,86,77,29.96,29.62,18,2,18,0.06
2013-11-17,78.5,65.4,49.1,66.5,50.4,26.2,96,64,24,29.98,29.38,36,5,37,0.03
2013-11-18,55.4,44.9,32.0,40.9,34.1,27.6,93,69,35,30.34,29.98,19,2,19,0.00
2013-11-19,48.6,38.7,29.6,31.3,29.2,27.6,94,70,47,30.40,30.25,9,1,9,0.00
2013-11-20,49.7,41.8,35.9,42.1,35.2,29.3,90,77,69,30.26,30.06,14,2,14,0.09
2013-11-21,50.8,50.1,49.0,50.2,47.1,42.1,98,90,73,30.23,30.11,8,0,8,0.34
2013-11-22,49.8,39.0,33.4,49.3,36.7,30.1,98,91,85,30.58,30.22,14,3,15,0.01
2013-11-23,33.3,28.3,19.1,30.6,19.9,12.2,91,71,49,30.79,30.56,11,3,20,0.00
2013-11-24,29.7,22.9,15.5,14.2,11.0,5.8,83,62,36,30.82,30.50,9,1,9,0.00
2013-11-25,36.6,33.2,27.8,25.3,19.3,13.8,66,57,48,30.50,30.21,8,1,10,0.00
2013-11-26,38.9,32.6,23.6,29.9,23.8,12.3,88,70,57,30.32,30.13,17,3,19,0.00
2013-11-27,29.5,22.8,18.1,14.4,11.6,9.1,75,62,47,30.43,30.31,16,3,16,0.00
2013-11-28,45.7,33.3,23.1,26.2,19.9,12.9,74,58,45,30.56,30.29,16,2,18,0.00
2013-11-29,45.6,34.2,21.5,30.2,24.4,18.1,89,68,49,30.64,30.42,9,1,9,0.00
2013-11-30,58.5,43.5,29.6,39.5,34.0,26.9,92,71,49,30.42,30.11,10,0,10,0.00
2013-12-1,56.0,42.8,29.9,41.0,35.8,28.5,97,78,54,30.17,29.93,7,1,7,0.00
2013-12-2,57.4,47.2,40.2,46.6,41.1,34.7,93,80,66,29.93,29.70,7,0,7,0.00
2013-12-3,59.9,52.1,45.8,53.4,49.5,44.6,98,91,78,29.72,29.63,11,1,11,0.00
2013-12-4,67.6,54.3,38.9,57.2,49.8,33.1,99,86,62,29.90,29.52,22,3,22,0.01
2013-12-5,38.8,27.7,22.1,33.3,21.1,14.9,91,76,64,30.36,29.89,21,4,21,0.00
2013-12-6,23.8,20.9,15.8,19.3,12.0,6.2,86,68,59,30.67,30.34,11,2,11,0.00
2013-12-7,24.2,18.0,11.3,11.7,8.5,6.1,80,66,51,30.79,30.52,10,1,10,0.00
2013-12-8,28.1,24.5,20.2,25.7,21.2,11.7,94,88,64,30.53,30.07,11,2,11,0.00
2013-12-9,28.2,23.8,20.8,25.4,17.2,13.9,89,76,66,30.39,30.15,18,4,21,0.00
2013-12-10,36.4,23.9,14.5,18.1,14.6,10.0,86,69,45,30.38,30.29,19,2,19,0.00
2013-12-11,32.2,23.2,12.0,23.6,13.6,1.1,87,67,45,30.73,30.36,17,2,17,0.00
2013-12-12,38.8,23.9,8.6,17.7,10.7,1.2,81,58,39,30.72,30.33,10,0,10,0.00
2013-12-13,36.3,30.9,22.2,33.1,25.4,16.6,95,81,58,30.33,30.00,9,0,9,0.30
2013-12-14,34.2,31.6,26.9,33.1,30.2,24.4,97,95,90,30.20,29.89,16,4,18,0.08
2013-12-15,36.4,28.2,22.2,29.2,24.3,18.7,92,85,75,30.26,30.08,17,2,20,0.02
2013-12-16,32.2,28.5,25.1,29.3,26.5,23.6,95,92,86,30.20,30.04,10,1,10,0.04
2013-12-17,40.6,32.4,25.7,31.6,27.0,21.9,95,81,66,30.33,30.18,14,2,14,0.11
2013-12-18,50.8,36.7,20.6,36.4,26.7,18.1,93,69,45,30.32,29.98,10,1,11,0.17
2013-12-19,59.5,50.5,38.7,50.9,44.7,34.8,90,81,70,29.98,29.80,12,1,13,0.02
2013-12-20,69.0,50.9,35.7,59.6,47.1,33.8,94,87,72,29.90,29.69,17,3,20,0.01
2013-12-21,35.7,33.4,32.5,34.1,32.3,31.2,97,96,94,29.89,29.61,11,1,11,0.70
2013-12-22,34.7,32.3,26.9,33.0,30.1,22.3,97,92,84,30.33,29.70,18,4,19,0.08
2013-12-23,26.6,20.7,11.5,22.4,15.8,5.7,86,81,73,30.66,30.33,15,5,18,0.00
2013-12-24,24.0,16.1,6.5,14.5,5.3,-3.1,82,63,40,30.70,30.42,13,2,14,0.00
2013-12-25,36.3,31.3,23.9,31.1,25.1,14.5,86,78,67,30.44,30.29,11,2,14,0.00
2013-12-26,50.6,36.8,22.5,31.4,26.0,20.8,96,69,33,30.43,30.28,7,0,8,0.00
2013-12-27,55.3,41.1,28.1,34.2,29.9,24.1,89,66,39,30.42,30.26,9,1,10,0.00
2013-12-28,58.7,45.8,31.8,34.0,30.8,27.3,85,58,34,30.28,29.93,10,1,10,0.00
2013-12-29,42.4,29.4,16.8,32.5,22.7,6.7,87,76,62,30.33,29.89,21,4,21,0.00
2013-12-30,30.2,19.3,9.9,14.4,5.8,1.3,75,56,37,30.43,30.27,11,1,11,0.00
2013-12-31,42.8,33.9,24.3,25.6,20.8,14.7,75,59,47,30.46,30.19,11,2,11,0.00
2014-1-1,46.3,34.7,23.3,32.0,26.8,21.4,93,74,53,30.20,30.06,12,1,12,0.00
2014-1-2,23.3,17.1,7.2,21.6,12.4,3.1,93,82,69,30.56,30.11,20,4,20,0.00